sensor_id;sensor_type;location;lat;lon;timestamp;P1;durP1;ratioP1;P2;durP2;ratioP2
16314;SDS011;8266;52.150;4.768;2022-12-26T00:01:27;12.93;;;11.35;;
16314;SDS011;8266;52.150;4.768;2022-12-26T00:03:55;13.07;;;11.68;;
16314;SDS011;8266;52.150;4.768;2022-12-26T00:06:25;14.63;;;11.25;;
16314;SDS011;8266;52.150;4.768;2022-12-26T00:08:54;13.50;;;12.13;;
16314;SDS011;8266;52.150;4.768;2022-12-26T00:11:22;14.02;;;12.25;;
16314;SDS011;8266;52.150;4.768;2022-12-26T00:13:53;13.55;;;11.35;;
16314;SDS011;8266;52.150;4.768;2022-12-26T00:16:22;12.77;;;11.38;;
16314;SDS011;8266;52.150;4.768;2022-12-26T00:18:49;13.27;;;11.57;;
16314;SDS011;8266;52.150;4.768;2022-12-26T00:21:16;12.45;;;11.15;;
16314;SDS011;8266;52.150;4.768;2022-12-26T00:23:44;12.55;;;11.25;;
16314;SDS011;8266;52.150;4.768;2022-12-26T00:26:12;11.40;;;10.20;;
16314;SDS011;8266;52.150;4.768;2022-12-26T00:28:42;12.25;;;11.02;;
16314;SDS011;8266;52.150;4.768;2022-12-26T00:31:11;11.95;;;10.75;;
16314;SDS011;8266;52.150;4.768;2022-12-26T00:33:40;12.38;;;10.40;;
16314;SDS011;8266;52.150;4.768;2022-12-26T00:36:08;12.18;;;10.88;;
16314;SDS011;8266;52.150;4.768;2022-12-26T00:38:37;12.77;;;11.32;;
16314;SDS011;8266;52.150;4.768;2022-12-26T00:41:08;12.60;;;11.30;;
16314;SDS011;8266;52.150;4.768;2022-12-26T00:43:36;13.65;;;11.45;;
16314;SDS011;8266;52.150;4.768;2022-12-26T00:46:04;12.88;;;10.82;;
16314;SDS011;8266;52.150;4.768;2022-12-26T00:48:32;14.13;;;11.27;;
16314;SDS011;8266;52.150;4.768;2022-12-26T00:50:59;12.18;;;10.82;;
16314;SDS011;8266;52.150;4.768;2022-12-26T00:53:27;11.95;;;10.63;;
16314;SDS011;8266;52.150;4.768;2022-12-26T00:55:54;13.23;;;10.98;;
16314;SDS011;8266;52.150;4.768;2022-12-26T00:58:21;12.35;;;10.73;;
16314;SDS011;8266;52.150;4.768;2022-12-26T01:00:49;12.50;;;11.02;;
16314;SDS011;8266;52.150;4.768;2022-12-26T01:03:17;15.23;;;12.38;;
16314;SDS011;8266;52.150;4.768;2022-12-26T01:05:46;13.23;;;11.73;;
16314;SDS011;8266;52.150;4.768;2022-12-26T01:08:13;15.55;;;12.40;;
16314;SDS011;8266;52.150;4.768;2022-12-26T01:10:42;14.20;;;12.38;;
16314;SDS011;8266;52.150;4.768;2022-12-26T01:13:10;12.98;;;11.57;;
16314;SDS011;8266;52.150;4.768;2022-12-26T01:15:38;13.93;;;12.45;;
16314;SDS011;8266;52.150;4.768;2022-12-26T01:18:05;13.02;;;11.73;;
16314;SDS011;8266;52.150;4.768;2022-12-26T01:20:32;14.68;;;12.77;;
16314;SDS011;8266;52.150;4.768;2022-12-26T01:23:00;16.77;;;12.68;;
16314;SDS011;8266;52.150;4.768;2022-12-26T01:25:27;16.08;;;13.18;;
16314;SDS011;8266;52.150;4.768;2022-12-26T01:27:54;16.73;;;13.10;;
16314;SDS011;8266;52.150;4.768;2022-12-26T01:30:21;14.75;;;13.27;;
16314;SDS011;8266;52.150;4.768;2022-12-26T01:32:48;17.95;;;14.20;;
16314;SDS011;8266;52.150;4.768;2022-12-26T01:35:15;14.38;;;12.90;;
16314;SDS011;8266;52.150;4.768;2022-12-26T01:37:42;17.00;;;15.02;;
16314;SDS011;8266;52.150;4.768;2022-12-26T01:40:11;16.50;;;14.73;;
16314;SDS011;8266;52.150;4.768;2022-12-26T01:42:39;16.58;;;13.95;;
16314;SDS011;8266;52.150;4.768;2022-12-26T01:45:15;15.80;;;14.10;;
16314;SDS011;8266;52.150;4.768;2022-12-26T01:47:48;15.57;;;13.98;;
16314;SDS011;8266;52.150;4.768;2022-12-26T01:50:23;15.52;;;13.73;;
16314;SDS011;8266;52.150;4.768;2022-12-26T01:52:59;14.57;;;12.57;;
16314;SDS011;8266;52.150;4.768;2022-12-26T01:55:32;15.27;;;13.68;;
16314;SDS011;8266;52.150;4.768;2022-12-26T01:58:00;14.65;;;12.88;;
16314;SDS011;8266;52.150;4.768;2022-12-26T02:00:32;15.35;;;13.45;;
16314;SDS011;8266;52.150;4.768;2022-12-26T02:03:02;14.30;;;12.80;;
16314;SDS011;8266;52.150;4.768;2022-12-26T02:05:48;15.55;;;12.93;;
16314;SDS011;8266;52.150;4.768;2022-12-26T02:08:16;14.77;;;13.13;;
16314;SDS011;8266;52.150;4.768;2022-12-26T02:10:48;14.05;;;12.55;;
16314;SDS011;8266;52.150;4.768;2022-12-26T02:13:20;15.63;;;12.68;;
16314;SDS011;8266;52.150;4.768;2022-12-26T02:15:48;14.85;;;12.32;;
16314;SDS011;8266;52.150;4.768;2022-12-26T02:18:15;13.60;;;12.27;;
16314;SDS011;8266;52.150;4.768;2022-12-26T02:20:45;16.48;;;12.20;;
16314;SDS011;8266;52.150;4.768;2022-12-26T02:23:39;13.20;;;11.75;;
16314;SDS011;8266;52.150;4.768;2022-12-26T02:32:26;13.55;;;10.95;;
16314;SDS011;8266;52.150;4.768;2022-12-26T02:35:03;16.40;;;11.73;;
16314;SDS011;8266;52.150;4.768;2022-12-26T02:37:42;11.90;;;10.55;;
16314;SDS011;8266;52.150;4.768;2022-12-26T02:40:30;12.38;;;11.10;;
16314;SDS011;8266;52.150;4.768;2022-12-26T02:43:12;13.65;;;11.73;;
16314;SDS011;8266;52.150;4.768;2022-12-26T02:45:46;12.35;;;11.13;;
16314;SDS011;8266;52.150;4.768;2022-12-26T02:48:42;12.80;;;11.50;;
16314;SDS011;8266;52.150;4.768;2022-12-26T02:51:20;11.55;;;10.30;;
16314;SDS011;8266;52.150;4.768;2022-12-26T02:54:19;11.38;;;10.18;;
16314;SDS011;8266;52.150;4.768;2022-12-26T02:57:07;12.63;;;11.20;;
16314;SDS011;8266;52.150;4.768;2022-12-26T02:59:58;15.55;;;11.77;;
16314;SDS011;8266;52.150;4.768;2022-12-26T03:02:49;13.55;;;12.25;;
16314;SDS011;8266;52.150;4.768;2022-12-26T03:05:38;13.18;;;11.88;;
16314;SDS011;8266;52.150;4.768;2022-12-26T03:08:27;13.57;;;12.27;;
16314;SDS011;8266;52.150;4.768;2022-12-26T03:11:15;12.45;;;11.05;;
16314;SDS011;8266;52.150;4.768;2022-12-26T03:14:02;12.93;;;11.63;;
16314;SDS011;8266;52.150;4.768;2022-12-26T03:16:36;13.15;;;11.93;;
16314;SDS011;8266;52.150;4.768;2022-12-26T03:19:21;13.18;;;11.98;;
16314;SDS011;8266;52.150;4.768;2022-12-26T03:21:53;13.18;;;11.95;;
16314;SDS011;8266;52.150;4.768;2022-12-26T03:24:22;13.25;;;11.90;;
16314;SDS011;8266;52.150;4.768;2022-12-26T03:27:10;13.90;;;12.40;;
16314;SDS011;8266;52.150;4.768;2022-12-26T03:29:36;13.45;;;12.25;;
16314;SDS011;8266;52.150;4.768;2022-12-26T03:32:21;13.70;;;12.40;;
16314;SDS011;8266;52.150;4.768;2022-12-26T03:34:47;13.50;;;12.20;;
16314;SDS011;8266;52.150;4.768;2022-12-26T03:37:25;13.15;;;11.75;;
16314;SDS011;8266;52.150;4.768;2022-12-26T03:40:01;13.65;;;12.40;;
16314;SDS011;8266;52.150;4.768;2022-12-26T03:42:56;12.90;;;11.70;;
16314;SDS011;8266;52.150;4.768;2022-12-26T03:45:58;13.00;;;11.70;;
16314;SDS011;8266;52.150;4.768;2022-12-26T03:48:53;13.57;;;12.38;;
16314;SDS011;8266;52.150;4.768;2022-12-26T03:51:45;13.55;;;12.15;;
16314;SDS011;8266;52.150;4.768;2022-12-26T03:54:36;12.68;;;11.48;;
16314;SDS011;8266;52.150;4.768;2022-12-26T03:57:28;12.02;;;10.80;;
16314;SDS011;8266;52.150;4.768;2022-12-26T04:00:18;11.80;;;10.60;;
16314;SDS011;8266;52.150;4.768;2022-12-26T04:03:04;11.43;;;10.25;;
16314;SDS011;8266;52.150;4.768;2022-12-26T04:05:52;12.63;;;10.90;;
16314;SDS011;8266;52.150;4.768;2022-12-26T04:08:41;10.80;;;9.80;;
16314;SDS011;8266;52.150;4.768;2022-12-26T04:11:34;10.90;;;9.80;;
16314;SDS011;8266;52.150;4.768;2022-12-26T04:14:26;10.70;;;9.68;;
16314;SDS011;8266;52.150;4.768;2022-12-26T04:17:30;10.30;;;9.30;;
16314;SDS011;8266;52.150;4.768;2022-12-26T04:20:21;9.80;;;9.00;;
16314;SDS011;8266;52.150;4.768;2022-12-26T04:22:52;10.27;;;9.27;;
16314;SDS011;8266;52.150;4.768;2022-12-26T04:25:42;11.30;;;8.60;;
16314;SDS011;8266;52.150;4.768;2022-12-26T04:28:30;9.38;;;8.25;;
16314;SDS011;8266;52.150;4.768;2022-12-26T04:31:16;9.52;;;7.93;;
16314;SDS011;8266;52.150;4.768;2022-12-26T04:34:08;9.35;;;7.70;;
16314;SDS011;8266;52.150;4.768;2022-12-26T04:36:59;8.50;;;7.70;;
16314;SDS011;8266;52.150;4.768;2022-12-26T04:39:48;8.30;;;7.35;;
16314;SDS011;8266;52.150;4.768;2022-12-26T04:42:37;7.72;;;7.03;;
16314;SDS011;8266;52.150;4.768;2022-12-26T04:45:25;10.77;;;7.70;;
16314;SDS011;8266;52.150;4.768;2022-12-26T04:47:53;7.43;;;6.72;;
16314;SDS011;8266;52.150;4.768;2022-12-26T04:50:46;8.65;;;7.07;;
16314;SDS011;8266;52.150;4.768;2022-12-26T04:53:14;7.88;;;6.60;;
16314;SDS011;8266;52.150;4.768;2022-12-26T04:55:41;6.82;;;6.05;;
16314;SDS011;8266;52.150;4.768;2022-12-26T04:58:09;6.88;;;6.18;;
16314;SDS011;8266;52.150;4.768;2022-12-26T05:00:37;7.03;;;6.32;;
16314;SDS011;8266;52.150;4.768;2022-12-26T05:03:05;7.55;;;5.75;;
16314;SDS011;8266;52.150;4.768;2022-12-26T05:05:50;7.57;;;5.65;;
16314;SDS011;8266;52.150;4.768;2022-12-26T05:08:36;6.30;;;5.70;;
16314;SDS011;8266;52.150;4.768;2022-12-26T05:11:21;6.40;;;5.28;;
16314;SDS011;8266;52.150;4.768;2022-12-26T05:13:49;5.82;;;5.22;;
16314;SDS011;8266;52.150;4.768;2022-12-26T05:16:18;6.60;;;5.90;;
16314;SDS011;8266;52.150;4.768;2022-12-26T05:19:03;5.60;;;4.80;;
16314;SDS011;8266;52.150;4.768;2022-12-26T05:21:48;6.05;;;5.30;;
16314;SDS011;8266;52.150;4.768;2022-12-26T05:24:33;7.60;;;5.10;;
16314;SDS011;8266;52.150;4.768;2022-12-26T05:27:20;5.82;;;5.22;;
16314;SDS011;8266;52.150;4.768;2022-12-26T05:30:05;6.10;;;5.60;;
16314;SDS011;8266;52.150;4.768;2022-12-26T05:32:34;4.72;;;4.00;;
16314;SDS011;8266;52.150;4.768;2022-12-26T05:35:18;4.55;;;4.13;;
16314;SDS011;8266;52.150;4.768;2022-12-26T05:37:45;4.65;;;4.00;;
16314;SDS011;8266;52.150;4.768;2022-12-26T05:40:12;5.35;;;3.75;;
16314;SDS011;8266;52.150;4.768;2022-12-26T05:42:39;5.30;;;3.95;;
16314;SDS011;8266;52.150;4.768;2022-12-26T05:45:07;6.00;;;3.65;;
16314;SDS011;8266;52.150;4.768;2022-12-26T05:47:38;4.20;;;3.67;;
16314;SDS011;8266;52.150;4.768;2022-12-26T05:50:05;4.97;;;3.30;;
16314;SDS011;8266;52.150;4.768;2022-12-26T05:52:33;5.85;;;3.47;;
16314;SDS011;8266;52.150;4.768;2022-12-26T05:55:00;3.83;;;3.50;;
16314;SDS011;8266;52.150;4.768;2022-12-26T05:57:27;3.55;;;3.17;;
16314;SDS011;8266;52.150;4.768;2022-12-26T05:59:54;3.67;;;3.33;;
16314;SDS011;8266;52.150;4.768;2022-12-26T06:02:21;4.40;;;3.15;;
16314;SDS011;8266;52.150;4.768;2022-12-26T06:04:49;3.90;;;2.92;;
16314;SDS011;8266;52.150;4.768;2022-12-26T06:07:16;3.50;;;2.90;;
16314;SDS011;8266;52.150;4.768;2022-12-26T06:09:43;3.90;;;3.22;;
16314;SDS011;8266;52.150;4.768;2022-12-26T06:12:10;4.28;;;3.17;;
16314;SDS011;8266;52.150;4.768;2022-12-26T06:14:37;5.13;;;3.00;;
16314;SDS011;8266;52.150;4.768;2022-12-26T06:17:04;3.58;;;2.80;;
16314;SDS011;8266;52.150;4.768;2022-12-26T06:19:31;4.13;;;3.13;;
16314;SDS011;8266;52.150;4.768;2022-12-26T06:22:00;4.75;;;3.20;;
16314;SDS011;8266;52.150;4.768;2022-12-26T06:24:27;4.70;;;2.75;;
16314;SDS011;8266;52.150;4.768;2022-12-26T06:26:54;3.55;;;3.25;;
16314;SDS011;8266;52.150;4.768;2022-12-26T06:29:21;3.35;;;3.05;;
16314;SDS011;8266;52.150;4.768;2022-12-26T06:31:48;3.72;;;3.42;;
16314;SDS011;8266;52.150;4.768;2022-12-26T06:34:15;4.55;;;3.47;;
16314;SDS011;8266;52.150;4.768;2022-12-26T06:36:42;3.92;;;3.33;;
16314;SDS011;8266;52.150;4.768;2022-12-26T06:39:11;4.05;;;3.30;;
16314;SDS011;8266;52.150;4.768;2022-12-26T06:41:37;4.40;;;3.50;;
16314;SDS011;8266;52.150;4.768;2022-12-26T06:44:05;3.90;;;3.50;;
16314;SDS011;8266;52.150;4.768;2022-12-26T06:46:32;4.40;;;3.20;;
16314;SDS011;8266;52.150;4.768;2022-12-26T06:48:58;4.60;;;3.97;;
16314;SDS011;8266;52.150;4.768;2022-12-26T06:51:26;3.38;;;3.08;;
16314;SDS011;8266;52.150;4.768;2022-12-26T06:53:53;4.15;;;3.15;;
16314;SDS011;8266;52.150;4.768;2022-12-26T06:56:22;5.00;;;3.63;;
16314;SDS011;8266;52.150;4.768;2022-12-26T06:58:51;5.20;;;3.10;;
16314;SDS011;8266;52.150;4.768;2022-12-26T07:01:19;7.70;;;3.40;;
16314;SDS011;8266;52.150;4.768;2022-12-26T07:03:46;5.68;;;3.17;;
16314;SDS011;8266;52.150;4.768;2022-12-26T07:06:16;3.28;;;2.75;;
16314;SDS011;8266;52.150;4.768;2022-12-26T07:08:47;8.15;;;3.03;;
16314;SDS011;8266;52.150;4.768;2022-12-26T07:11:15;5.50;;;3.03;;
16314;SDS011;8266;52.150;4.768;2022-12-26T07:13:46;3.47;;;2.58;;
16314;SDS011;8266;52.150;4.768;2022-12-26T07:16:13;5.75;;;2.50;;
16314;SDS011;8266;52.150;4.768;2022-12-26T07:18:40;4.63;;;2.47;;
16314;SDS011;8266;52.150;4.768;2022-12-26T07:21:08;4.65;;;2.38;;
16314;SDS011;8266;52.150;4.768;2022-12-26T07:23:36;3.90;;;2.47;;
16314;SDS011;8266;52.150;4.768;2022-12-26T07:26:04;4.28;;;2.85;;
16314;SDS011;8266;52.150;4.768;2022-12-26T07:28:31;6.47;;;2.50;;
16314;SDS011;8266;52.150;4.768;2022-12-26T07:31:00;3.20;;;2.20;;
16314;SDS011;8266;52.150;4.768;2022-12-26T07:33:27;9.90;;;2.15;;
16314;SDS011;8266;52.150;4.768;2022-12-26T07:35:57;3.75;;;2.15;;
16314;SDS011;8266;52.150;4.768;2022-12-26T07:38:25;4.20;;;2.58;;
16314;SDS011;8266;52.150;4.768;2022-12-26T07:40:53;5.72;;;2.72;;
16314;SDS011;8266;52.150;4.768;2022-12-26T07:43:20;4.78;;;2.45;;
16314;SDS011;8266;52.150;4.768;2022-12-26T07:45:47;5.97;;;2.20;;
16314;SDS011;8266;52.150;4.768;2022-12-26T07:48:16;4.15;;;2.35;;
16314;SDS011;8266;52.150;4.768;2022-12-26T07:50:43;4.53;;;2.40;;
16314;SDS011;8266;52.150;4.768;2022-12-26T07:53:11;4.80;;;2.05;;
16314;SDS011;8266;52.150;4.768;2022-12-26T07:55:39;3.60;;;2.03;;
16314;SDS011;8266;52.150;4.768;2022-12-26T07:58:06;5.65;;;1.90;;
16314;SDS011;8266;52.150;4.768;2022-12-26T08:00:33;3.92;;;1.75;;
16314;SDS011;8266;52.150;4.768;2022-12-26T08:03:00;5.10;;;2.05;;
16314;SDS011;8266;52.150;4.768;2022-12-26T08:05:28;5.03;;;2.33;;
16314;SDS011;8266;52.150;4.768;2022-12-26T08:07:55;3.28;;;1.98;;
16314;SDS011;8266;52.150;4.768;2022-12-26T08:10:22;9.13;;;2.22;;
16314;SDS011;8266;52.150;4.768;2022-12-26T08:12:49;4.80;;;2.10;;
16314;SDS011;8266;52.150;4.768;2022-12-26T08:15:16;5.60;;;2.40;;
16314;SDS011;8266;52.150;4.768;2022-12-26T08:17:43;3.15;;;2.03;;
16314;SDS011;8266;52.150;4.768;2022-12-26T08:20:10;4.55;;;2.53;;
16314;SDS011;8266;52.150;4.768;2022-12-26T08:22:38;2.95;;;2.53;;
16314;SDS011;8266;52.150;4.768;2022-12-26T08:25:05;3.63;;;2.17;;
16314;SDS011;8266;52.150;4.768;2022-12-26T08:27:33;4.07;;;2.33;;
16314;SDS011;8266;52.150;4.768;2022-12-26T08:30:00;3.55;;;2.00;;
16314;SDS011;8266;52.150;4.768;2022-12-26T08:32:27;2.67;;;1.83;;
16314;SDS011;8266;52.150;4.768;2022-12-26T08:34:54;4.10;;;1.67;;
16314;SDS011;8266;52.150;4.768;2022-12-26T08:37:21;3.13;;;1.40;;
16314;SDS011;8266;52.150;4.768;2022-12-26T08:39:50;5.80;;;1.80;;
16314;SDS011;8266;52.150;4.768;2022-12-26T08:42:17;4.90;;;1.40;;
16314;SDS011;8266;52.150;4.768;2022-12-26T08:44:44;6.00;;;1.70;;
16314;SDS011;8266;52.150;4.768;2022-12-26T08:47:12;5.57;;;1.60;;
16314;SDS011;8266;52.150;4.768;2022-12-26T08:49:39;4.78;;;1.05;;
16314;SDS011;8266;52.150;4.768;2022-12-26T08:52:06;5.95;;;1.40;;
16314;SDS011;8266;52.150;4.768;2022-12-26T08:54:33;4.70;;;1.20;;
16314;SDS011;8266;52.150;4.768;2022-12-26T08:57:02;3.65;;;1.02;;
16314;SDS011;8266;52.150;4.768;2022-12-26T08:59:29;4.78;;;1.52;;
16314;SDS011;8266;52.150;4.768;2022-12-26T09:01:56;5.82;;;1.05;;
16314;SDS011;8266;52.150;4.768;2022-12-26T09:04:23;6.50;;;2.33;;
16314;SDS011;8266;52.150;4.768;2022-12-26T09:06:50;7.85;;;1.77;;
16314;SDS011;8266;52.150;4.768;2022-12-26T09:09:17;16.02;;;3.15;;
16314;SDS011;8266;52.150;4.768;2022-12-26T09:11:44;8.88;;;2.38;;
16314;SDS011;8266;52.150;4.768;2022-12-26T09:14:12;5.82;;;1.77;;
16314;SDS011;8266;52.150;4.768;2022-12-26T09:16:40;10.38;;;2.65;;
16314;SDS011;8266;52.150;4.768;2022-12-26T09:19:08;9.63;;;2.17;;
16314;SDS011;8266;52.150;4.768;2022-12-26T09:21:37;4.15;;;1.55;;
16314;SDS011;8266;52.150;4.768;2022-12-26T09:24:05;7.25;;;1.70;;
16314;SDS011;8266;52.150;4.768;2022-12-26T09:26:35;5.72;;;1.23;;
16314;SDS011;8266;52.150;4.768;2022-12-26T09:29:02;5.53;;;1.80;;
16314;SDS011;8266;52.150;4.768;2022-12-26T09:31:32;7.53;;;1.58;;
16314;SDS011;8266;52.150;4.768;2022-12-26T09:34:00;7.43;;;1.40;;
16314;SDS011;8266;52.150;4.768;2022-12-26T09:36:27;5.88;;;1.48;;
16314;SDS011;8266;52.150;4.768;2022-12-26T09:38:56;6.68;;;1.67;;
16314;SDS011;8266;52.150;4.768;2022-12-26T09:44:15;7.05;;;1.48;;
16314;SDS011;8266;52.150;4.768;2022-12-26T09:46:58;8.02;;;1.90;;
16314;SDS011;8266;52.150;4.768;2022-12-26T09:49:33;4.68;;;1.40;;
16314;SDS011;8266;52.150;4.768;2022-12-26T09:52:04;7.18;;;1.88;;
16314;SDS011;8266;52.150;4.768;2022-12-26T09:54:39;7.90;;;1.92;;
16314;SDS011;8266;52.150;4.768;2022-12-26T09:57:11;5.68;;;1.55;;
16314;SDS011;8266;52.150;4.768;2022-12-26T09:59:44;7.10;;;1.67;;
16314;SDS011;8266;52.150;4.768;2022-12-26T10:02:16;4.03;;;1.33;;
16314;SDS011;8266;52.150;4.768;2022-12-26T10:04:46;8.75;;;2.13;;
16314;SDS011;8266;52.150;4.768;2022-12-26T10:07:16;9.23;;;1.77;;
16314;SDS011;8266;52.150;4.768;2022-12-26T10:10:01;4.05;;;1.00;;
16314;SDS011;8266;52.150;4.768;2022-12-26T10:12:35;7.55;;;1.60;;
16314;SDS011;8266;52.150;4.768;2022-12-26T10:15:10;4.28;;;1.10;;
16314;SDS011;8266;52.150;4.768;2022-12-26T10:17:48;4.47;;;1.08;;
16314;SDS011;8266;52.150;4.768;2022-12-26T10:20:22;5.03;;;1.05;;
16314;SDS011;8266;52.150;4.768;2022-12-26T10:23:19;5.28;;;1.60;;
16314;SDS011;8266;52.150;4.768;2022-12-26T10:25:55;3.78;;;0.88;;
16314;SDS011;8266;52.150;4.768;2022-12-26T10:28:29;4.00;;;1.05;;
16314;SDS011;8266;52.150;4.768;2022-12-26T10:31:00;4.97;;;1.00;;
16314;SDS011;8266;52.150;4.768;2022-12-26T10:33:34;8.30;;;1.33;;
16314;SDS011;8266;52.150;4.768;2022-12-26T10:36:07;4.93;;;1.00;;
16314;SDS011;8266;52.150;4.768;2022-12-26T10:38:51;2.90;;;1.20;;
16314;SDS011;8266;52.150;4.768;2022-12-26T10:41:22;2.22;;;0.80;;
16314;SDS011;8266;52.150;4.768;2022-12-26T10:43:52;4.68;;;0.93;;
16314;SDS011;8266;52.150;4.768;2022-12-26T10:46:25;3.08;;;1.10;;
16314;SDS011;8266;52.150;4.768;2022-12-26T10:49:11;4.03;;;0.98;;
16314;SDS011;8266;52.150;4.768;2022-12-26T10:51:41;5.80;;;2.67;;
16314;SDS011;8266;52.150;4.768;2022-12-26T10:54:09;3.75;;;1.70;;
16314;SDS011;8266;52.150;4.768;2022-12-26T10:56:41;7.70;;;3.20;;
16314;SDS011;8266;52.150;4.768;2022-12-26T10:59:10;4.28;;;1.58;;
16314;SDS011;8266;52.150;4.768;2022-12-26T11:01:40;4.43;;;1.17;;
16314;SDS011;8266;52.150;4.768;2022-12-26T11:04:15;5.00;;;1.52;;
16314;SDS011;8266;52.150;4.768;2022-12-26T11:06:44;5.05;;;1.10;;
16314;SDS011;8266;52.150;4.768;2022-12-26T11:09:22;6.97;;;1.15;;
16314;SDS011;8266;52.150;4.768;2022-12-26T11:11:59;4.47;;;1.23;;
16314;SDS011;8266;52.150;4.768;2022-12-26T11:14:31;2.92;;;1.20;;
16314;SDS011;8266;52.150;4.768;2022-12-26T11:17:01;5.20;;;1.75;;
16314;SDS011;8266;52.150;4.768;2022-12-26T11:19:33;3.42;;;1.17;;
16314;SDS011;8266;52.150;4.768;2022-12-26T11:22:14;4.82;;;1.20;;
16314;SDS011;8266;52.150;4.768;2022-12-26T11:25:15;3.83;;;1.30;;
16314;SDS011;8266;52.150;4.768;2022-12-26T11:27:45;2.78;;;0.73;;
16314;SDS011;8266;52.150;4.768;2022-12-26T11:30:20;5.63;;;1.25;;
16314;SDS011;8266;52.150;4.768;2022-12-26T11:33:06;2.90;;;1.35;;
16314;SDS011;8266;52.150;4.768;2022-12-26T11:35:45;3.38;;;0.70;;
16314;SDS011;8266;52.150;4.768;2022-12-26T11:38:16;3.17;;;0.70;;
16314;SDS011;8266;52.150;4.768;2022-12-26T11:41:15;4.10;;;0.95;;
16314;SDS011;8266;52.150;4.768;2022-12-26T11:44:04;3.95;;;0.80;;
16314;SDS011;8266;52.150;4.768;2022-12-26T11:46:41;3.58;;;0.93;;
16314;SDS011;8266;52.150;4.768;2022-12-26T11:49:15;4.35;;;0.90;;
16314;SDS011;8266;52.150;4.768;2022-12-26T11:51:46;2.67;;;0.88;;
16314;SDS011;8266;52.150;4.768;2022-12-26T11:54:22;3.05;;;0.77;;
16314;SDS011;8266;52.150;4.768;2022-12-26T11:57:07;2.60;;;0.90;;
16314;SDS011;8266;52.150;4.768;2022-12-26T11:59:38;4.10;;;0.90;;
16314;SDS011;8266;52.150;4.768;2022-12-26T12:02:13;2.25;;;0.80;;
16314;SDS011;8266;52.150;4.768;2022-12-26T12:04:43;3.38;;;1.23;;
16314;SDS011;8266;52.150;4.768;2022-12-26T12:07:13;3.60;;;0.98;;
16314;SDS011;8266;52.150;4.768;2022-12-26T12:09:49;4.35;;;1.00;;
16314;SDS011;8266;52.150;4.768;2022-12-26T12:12:24;4.47;;;1.00;;
16314;SDS011;8266;52.150;4.768;2022-12-26T12:15:01;5.47;;;1.27;;
16314;SDS011;8266;52.150;4.768;2022-12-26T12:17:38;4.35;;;0.75;;
16314;SDS011;8266;52.150;4.768;2022-12-26T12:20:19;6.43;;;1.00;;
16314;SDS011;8266;52.150;4.768;2022-12-26T12:23:01;3.45;;;1.10;;
16314;SDS011;8266;52.150;4.768;2022-12-26T12:25:48;2.70;;;0.90;;
16314;SDS011;8266;52.150;4.768;2022-12-26T12:28:30;3.08;;;0.90;;
16314;SDS011;8266;52.150;4.768;2022-12-26T12:31:13;2.08;;;0.90;;
16314;SDS011;8266;52.150;4.768;2022-12-26T12:33:48;3.08;;;0.88;;
16314;SDS011;8266;52.150;4.768;2022-12-26T12:36:23;3.92;;;0.98;;
16314;SDS011;8266;52.150;4.768;2022-12-26T12:38:59;2.33;;;0.80;;
16314;SDS011;8266;52.150;4.768;2022-12-26T12:41:38;2.90;;;0.90;;
16314;SDS011;8266;52.150;4.768;2022-12-26T12:44:28;2.20;;;0.80;;
16314;SDS011;8266;52.150;4.768;2022-12-26T12:47:06;3.40;;;0.88;;
16314;SDS011;8266;52.150;4.768;2022-12-26T12:49:46;2.33;;;0.82;;
16314;SDS011;8266;52.150;4.768;2022-12-26T12:52:27;6.10;;;0.98;;
16314;SDS011;8266;52.150;4.768;2022-12-26T12:57:57;7.40;;;1.20;;
16314;SDS011;8266;52.150;4.768;2022-12-26T13:00:32;6.30;;;1.05;;
16314;SDS011;8266;52.150;4.768;2022-12-26T13:03:08;4.45;;;1.20;;
16314;SDS011;8266;52.150;4.768;2022-12-26T13:05:39;3.63;;;1.05;;
16314;SDS011;8266;52.150;4.768;2022-12-26T13:08:11;3.33;;;1.00;;
16314;SDS011;8266;52.150;4.768;2022-12-26T13:10:45;6.10;;;1.40;;
16314;SDS011;8266;52.150;4.768;2022-12-26T13:13:18;3.20;;;1.05;;
16314;SDS011;8266;52.150;4.768;2022-12-26T13:15:51;5.78;;;1.25;;
16314;SDS011;8266;52.150;4.768;2022-12-26T13:18:23;2.88;;;0.88;;
16314;SDS011;8266;52.150;4.768;2022-12-26T13:20:56;3.78;;;1.10;;
16314;SDS011;8266;52.150;4.768;2022-12-26T13:23:28;3.42;;;1.20;;
16314;SDS011;8266;52.150;4.768;2022-12-26T13:26:18;5.80;;;1.33;;
16314;SDS011;8266;52.150;4.768;2022-12-26T13:28:52;5.63;;;1.10;;
16314;SDS011;8266;52.150;4.768;2022-12-26T13:31:25;5.10;;;1.30;;
16314;SDS011;8266;52.150;4.768;2022-12-26T13:33:58;1.98;;;1.00;;
16314;SDS011;8266;52.150;4.768;2022-12-26T13:36:39;5.80;;;1.25;;
16314;SDS011;8266;52.150;4.768;2022-12-26T13:39:20;5.05;;;1.13;;
16314;SDS011;8266;52.150;4.768;2022-12-26T13:42:15;3.40;;;0.93;;
16314;SDS011;8266;52.150;4.768;2022-12-26T13:54:10;5.70;;;1.08;;
16314;SDS011;8266;52.150;4.768;2022-12-26T13:59:42;4.75;;;1.02;;
16314;SDS011;8266;52.150;4.768;2022-12-26T14:05:33;4.47;;;1.10;;
16314;SDS011;8266;52.150;4.768;2022-12-26T14:08:06;5.38;;;1.60;;
16314;SDS011;8266;52.150;4.768;2022-12-26T14:10:44;4.47;;;1.27;;
16314;SDS011;8266;52.150;4.768;2022-12-26T14:13:36;5.07;;;1.30;;
16314;SDS011;8266;52.150;4.768;2022-12-26T14:16:18;3.28;;;1.17;;
16314;SDS011;8266;52.150;4.768;2022-12-26T14:19:01;10.15;;;1.50;;
16314;SDS011;8266;52.150;4.768;2022-12-26T14:21:39;3.63;;;1.30;;
16314;SDS011;8266;52.150;4.768;2022-12-26T14:24:20;4.93;;;1.40;;
16314;SDS011;8266;52.150;4.768;2022-12-26T14:26:55;6.55;;;1.70;;
16314;SDS011;8266;52.150;4.768;2022-12-26T14:29:37;4.53;;;1.67;;
16314;SDS011;8266;52.150;4.768;2022-12-26T14:32:12;10.85;;;1.90;;
16314;SDS011;8266;52.150;4.768;2022-12-26T14:34:57;8.77;;;1.27;;
16314;SDS011;8266;52.150;4.768;2022-12-26T14:37:33;5.28;;;1.30;;
16314;SDS011;8266;52.150;4.768;2022-12-26T14:40:16;4.18;;;1.13;;
16314;SDS011;8266;52.150;4.768;2022-12-26T14:43:00;3.38;;;1.05;;
16314;SDS011;8266;52.150;4.768;2022-12-26T14:45:44;3.92;;;1.25;;
16314;SDS011;8266;52.150;4.768;2022-12-26T14:51:37;4.82;;;1.05;;
16314;SDS011;8266;52.150;4.768;2022-12-26T14:54:12;4.60;;;1.20;;
16314;SDS011;8266;52.150;4.768;2022-12-26T14:56:56;5.95;;;1.27;;
16314;SDS011;8266;52.150;4.768;2022-12-26T14:59:27;7.18;;;1.70;;
16314;SDS011;8266;52.150;4.768;2022-12-26T15:02:00;6.28;;;1.10;;
16314;SDS011;8266;52.150;4.768;2022-12-26T15:04:47;7.68;;;1.60;;
16314;SDS011;8266;52.150;4.768;2022-12-26T15:10:38;5.20;;;1.00;;
16314;SDS011;8266;52.150;4.768;2022-12-26T15:13:32;4.70;;;1.15;;
16314;SDS011;8266;52.150;4.768;2022-12-26T15:16:39;6.20;;;1.30;;
16314;SDS011;8266;52.150;4.768;2022-12-26T15:19:28;10.35;;;1.35;;
16314;SDS011;8266;52.150;4.768;2022-12-26T15:22:33;4.43;;;1.20;;
16314;SDS011;8266;52.150;4.768;2022-12-26T15:25:35;5.43;;;1.60;;
16314;SDS011;8266;52.150;4.768;2022-12-26T15:31:31;10.25;;;1.42;;
16314;SDS011;8266;52.150;4.768;2022-12-26T15:34:19;5.00;;;1.90;;
16314;SDS011;8266;52.150;4.768;2022-12-26T15:37:13;4.78;;;1.20;;
16314;SDS011;8266;52.150;4.768;2022-12-26T15:39:52;5.72;;;1.63;;
16314;SDS011;8266;52.150;4.768;2022-12-26T15:42:31;4.78;;;1.35;;
16314;SDS011;8266;52.150;4.768;2022-12-26T15:45:13;6.03;;;1.67;;
16314;SDS011;8266;52.150;4.768;2022-12-26T15:47:52;7.25;;;1.33;;
16314;SDS011;8266;52.150;4.768;2022-12-26T15:50:28;5.95;;;1.65;;
16314;SDS011;8266;52.150;4.768;2022-12-26T15:53:05;4.10;;;1.38;;
16314;SDS011;8266;52.150;4.768;2022-12-26T15:55:53;7.90;;;1.50;;
16314;SDS011;8266;52.150;4.768;2022-12-26T15:58:33;4.15;;;1.35;;
16314;SDS011;8266;52.150;4.768;2022-12-26T16:04:02;5.93;;;1.90;;
16314;SDS011;8266;52.150;4.768;2022-12-26T16:06:36;8.52;;;2.70;;
16314;SDS011;8266;52.150;4.768;2022-12-26T16:09:19;8.88;;;2.67;;
16314;SDS011;8266;52.150;4.768;2022-12-26T16:11:53;7.20;;;2.90;;
16314;SDS011;8266;52.150;4.768;2022-12-26T16:14:25;8.48;;;3.42;;
16314;SDS011;8266;52.150;4.768;2022-12-26T16:17:09;10.07;;;4.03;;
16314;SDS011;8266;52.150;4.768;2022-12-26T16:19:45;6.85;;;2.75;;